Time;durP1;ratioP1;P1;durP2;ratioP2;P2;SDS_P1;SDS_P2;PMS_P1;PMS_P2;Temp;Humidity;BMP_temperature;BMP_pressure;BME280_temperature;BME280_humidity;BME280_pressure;Samples;Min_cycle;Max_cycle;Signal;HPM_P1;HPM_P2
2022/12/27 00:01:31;;;;;;;22.95;11.33;;;;;;;5.63;96.28;100195.02;1704755;83;21525;-65
2022/12/27 00:03:57;;;;;;;22.52;11.55;;;;;;;5.16;98.65;100191.38;1699152;83;21145;-65
2022/12/27 00:06:25;;;;;;;25.88;13.72;;;;;;;5.16;99.56;100199.21;1707065;82;21213;-64
2022/12/27 00:08:53;;;;;;;24.72;13.40;;;;;;;5.73;97.08;100197.48;1699913;83;21073;-64
2022/12/27 00:11:22;;;;;;;27.52;14.68;;;;;;;5.46;97.82;100197.05;1705723;83;21105;-64
2022/12/27 00:13:49;;;;;;;25.68;14.03;;;;;;;5.71;96.87;100192.31;1705119;83;21888;-64
2022/12/27 00:16:19;;;;;;;28.75;14.13;;;;;;;5.62;97.38;100189.39;1713420;83;21108;-64
2022/12/27 00:18:46;;;;;;;23.12;12.58;;;;;;;6.62;92.44;100178.48;1708791;82;21520;-64
2022/12/27 00:21:13;;;;;;;26.25;13.65;;;;;;;6.36;92.19;100176.37;1710889;82;21639;-66
2022/12/27 00:23:43;;;;;;;20.52;9.50;;;;;;;5.84;95.19;100172.93;1710789;83;21033;-65
2022/12/27 00:26:17;;;;;;;23.57;11.85;;;;;;;5.73;96.21;100163.52;1710242;83;21164;-65
2022/12/27 00:28:44;;;;;;;22.20;11.93;;;;;;;5.80;95.77;100163.41;1689682;83;21240;-66
2022/12/27 00:31:11;;;;;;;25.50;12.60;;;;;;;5.98;95.63;100163.58;1696124;83;21055;-65
2022/12/27 00:33:40;;;;;;;25.02;13.22;;;;;;;6.65;93.07;100152.72;1687905;83;21085;-65
2022/12/27 00:36:10;;;;;;;16.55;8.13;;;;;;;6.45;92.80;100157.89;1692556;83;21166;-64
2022/12/27 00:38:36;;;;;;;21.73;10.70;;;;;;;5.96;95.24;100156.20;1693333;83;21173;-63
2022/12/27 00:41:04;;;;;;;23.38;11.90;;;;;;;6.15;93.67;100154.11;1692220;83;21179;-65
2022/12/27 00:43:31;;;;;;;22.55;11.60;;;;;;;6.33;93.75;100152.91;1695967;83;21193;-65
2022/12/27 00:45:58;;;;;;;24.25;12.80;;;;;;;6.20;93.50;100130.48;1690326;82;21602;-64
2022/12/27 00:48:24;;;;;;;18.62;9.30;;;;;;;6.64;92.45;100127.42;1679102;83;21600;-63
2022/12/27 00:51:14;;;;;;;20.50;11.45;;;;;;;6.47;92.21;100118.63;1686789;83;21564;-64
2022/12/27 00:53:40;;;;;;;19.12;10.03;;;;;;;6.25;93.48;100114.25;1694896;83;21018;-65
2022/12/27 00:56:12;;;;;;;18.27;7.65;;;;;;;6.48;92.72;100120.34;1683003;83;21185;-64
2022/12/27 00:58:40;;;;;;;18.00;9.08;;;;;;;5.93;95.43;100126.14;1690842;82;21632;-65
2022/12/27 01:01:11;;;;;;;21.48;11.78;;;;;;;6.33;93.75;100114.09;1683862;83;21519;-64
2022/12/27 01:03:38;;;;;;;;;;;;;;;5.90;94.95;100109.22;1686095;83;21171;-65
2022/12/27 01:06:08;;;;;;;20.08;10.18;;;;;;;6.25;94.26;100103.80;1679773;83;21150;-64
2022/12/27 01:08:35;;;;;;;22.58;10.80;;;;;;;6.31;93.85;100101.07;1677220;83;26696;-64
2022/12/27 01:11:03;;;;;;;20.15;9.95;;;;;;;6.81;91.74;100094.34;1698739;82;21107;-64
2022/12/27 01:13:29;;;;;;;21.35;11.45;;;;;;;6.53;92.75;100098.00;1702622;82;21120;-64
2022/12/27 01:15:56;;;;;;;26.97;12.13;;;;;;;6.56;92.65;100101.88;1684860;83;21132;-62
2022/12/27 01:18:23;;;;;;;26.07;12.47;;;;;;;6.36;93.24;100090.06;1696347;83;22899;-65
2022/12/27 01:20:49;;;;;;;20.60;11.18;;;;;;;6.81;92.16;100086.06;1689120;83;21105;-63
2022/12/27 01:23:16;;;;;;;23.62;12.10;;;;;;;6.83;91.83;100084.27;1687864;83;21104;-64
2022/12/27 01:25:44;;;;;;;22.02;11.63;;;;;;;6.66;92.74;100086.39;1687278;83;21120;-62
2022/12/27 01:28:10;;;;;;;28.52;11.63;;;;;;;6.48;92.98;100089.80;1690560;83;21080;-63
2022/12/27 01:30:37;;;;;;;21.73;10.82;;;;;;;6.53;93.93;100088.84;1706563;83;21235;-64
2022/12/27 01:33:04;;;;;;;22.77;11.08;;;;;;;6.41;94.51;100089.97;1715412;82;21607;-63
2022/12/27 01:35:31;;;;;;;23.07;11.35;;;;;;;6.07;95.72;100086.28;1716015;82;21085;-63
2022/12/27 01:37:57;;;;;;;20.97;10.55;;;;;;;6.06;95.55;100080.63;1710817;83;21116;-64
2022/12/27 01:40:24;;;;;;;24.25;11.75;;;;;;;6.08;96.59;100076.23;1705507;83;21120;-62
2022/12/27 01:42:51;;;;;;;21.68;11.40;;;;;;;6.58;94.48;100063.44;1706858;83;21119;-64
2022/12/27 01:45:26;;;;;;;22.32;10.75;;;;;;;6.59;93.99;100057.33;1711424;83;21060;-64
2022/12/27 01:48:00;;;;;;;23.07;11.33;;;;;;;6.71;94.12;100054.42;1710522;82;21136;-63
2022/12/27 01:50:35;;;;;;;24.40;12.03;;;;;;;7.16;92.01;100041.63;1704150;82;21043;-64
2022/12/27 01:53:20;;;;;;;26.70;12.33;;;;;;;7.10;91.95;100038.69;1701175;82;21196;-62
2022/12/27 01:55:57;;;;;;;22.17;10.28;;;;;;;6.35;94.77;100030.81;1701854;82;21141;-65
2022/12/27 01:58:34;;;;;;;20.62;10.45;;;;;;;6.47;94.96;100022.69;1698215;82;21026;-63
2022/12/27 02:01:05;;;;;;;21.00;10.65;;;;;;;6.78;93.56;100030.29;1691095;82;21092;-63
2022/12/27 02:03:35;;;;;;;20.62;10.82;;;;;;;7.00;93.47;100020.19;1661045;84;22113;-62
2022/12/27 02:06:03;;;;;;;22.22;11.43;;;;;;;7.56;90.73;100016.57;1659288;84;21104;-64
2022/12/27 02:08:58;;;;;;;20.72;10.70;;;;;;;7.28;90.69;100006.80;1662505;84;21125;-64
2022/12/27 02:14:40;;;;;;;20.20;11.28;;;;;;;7.22;91.65;100001.70;1668045;84;21007;-64
2022/12/27 02:17:14;;;;;;;23.07;11.28;;;;;;;7.25;91.24;100001.66;1663567;84;21108;-63
2022/12/27 02:19:58;;;;;;;20.72;10.93;;;;;;;7.04;92.89;99995.20;1657736;84;21160;-64
2022/12/27 02:26:09;;;;;;;22.65;11.15;;;;;;;7.43;91.48;99981.98;1660469;84;21118;-63
2022/12/27 02:29:18;;;;;;;21.02;12.07;;;;;;;7.02;93.02;99975.19;1646433;83;21095;-65
2022/12/27 02:32:05;;;;;;;19.55;11.12;;;;;;;6.87;94.22;99982.50;1688582;83;21559;-65
2022/12/27 02:34:49;;;;;;;20.77;11.05;;;;;;;6.82;93.75;99966.05;1690438;83;21026;-63
2022/12/27 02:37:16;;;;;;;19.05;10.48;;;;;;;6.88;93.89;99971.15;1689871;83;21157;-62
2022/12/27 02:39:46;;;;;;;23.02;11.03;;;;;;;6.91;94.27;99960.59;1683965;83;21727;-63
2022/12/27 02:53:33;;;;;;;20.65;11.40;;;;;;;7.71;91.45;99941.92;1640984;84;21103;-63
2022/12/27 02:59:36;;;;;;;20.17;11.35;;;;;;;7.63;91.86;99943.42;1686550;83;21113;-63
2022/12/27 03:05:26;;;;;;;26.80;11.85;;;;;;;7.42;92.47;99917.83;1653259;84;21604;-63
2022/12/27 03:08:00;;;;;;;23.38;12.98;;;;;;;7.40;92.89;99909.14;1653463;85;26721;-63
2022/12/27 03:16:40;;;;;;;20.40;11.08;;;;;;;7.02;95.19;99892.72;1652281;84;21133;-62
2022/12/27 03:19:14;;;;;;;18.57;9.75;;;;;;;7.14;95.14;99879.28;1651769;85;21167;-63
2022/12/27 03:27:30;;;;;;;24.30;12.18;;;;;;;7.66;92.82;99897.49;1681239;83;21155;-64
2022/12/27 03:39:12;;;;;;;27.37;13.88;;;;;;;8.01;91.31;99879.00;1665523;83;21234;-64
2022/12/27 03:44:30;;;;;;;25.55;12.98;;;;;;;7.67;92.67;99873.45;1710190;83;21612;-64
2022/12/27 03:47:06;;;;;;;41.00;16.12;;;;;;;7.88;92.05;99871.48;1710099;83;21057;-62
2022/12/27 03:49:49;;;;;;;54.10;19.90;;;;;;;7.51;93.36;99871.72;1710392;83;21116;-65
2022/12/27 03:52:36;;;;;;;27.85;13.80;;;;;;;7.70;92.89;99878.13;1698279;83;21569;-63
2022/12/27 03:55:03;;;;;;;25.30;15.38;;;;;;;7.88;92.34;99881.13;1709203;83;21115;-64
2022/12/27 03:57:30;;;;;;;33.63;17.02;;;;;;;8.06;91.60;99879.25;1681425;83;21076;-63
2022/12/27 03:59:56;;;;;;;45.33;21.05;;;;;;;8.01;91.60;99882.48;1707816;83;21676;-64
2022/12/27 04:02:23;;;;;;;42.98;16.95;;;;;;;7.86;92.26;99877.69;1714550;83;21597;-64
2022/12/27 04:04:51;;;;;;;47.05;19.80;;;;;;;7.98;91.65;99870.75;1706228;83;21149;-63
2022/12/27 04:07:17;;;;;;;49.27;19.75;;;;;;;7.80;92.39;99866.95;1706360;83;21096;-65
2022/12/27 04:34:44;;;;;;;31.73;15.63;;;;;;;7.67;93.99;99817.95;1663891;85;21596;-63
2022/12/27 04:37:14;;;;;;;28.25;15.30;;;;;;;7.51;95.07;99823.23;1659214;84;21663;-63
2022/12/27 04:54:55;;;;;;;29.80;15.68;;;;;;;7.77;94.00;99823.30;1658544;84;21765;-63
2022/12/27 04:56:05;;;;;;;39.13;17.85;;;;;;;7.79;94.16;99798.36;1663733;84;22757;-63
2022/12/27 04:58:32;;;;;;;52.53;22.50;;;;;;;7.54;95.29;99798.24;1656806;84;21584;-64
2022/12/27 05:03:48;;;;;;;39.27;17.50;;;;;;;7.42;96.90;99803.86;1635214;84;21208;-63
2022/12/27 05:06:16;;;;;;;33.28;18.37;;;;;;;7.34;96.98;99786.61;1653751;84;21205;-63
2022/12/27 05:14:15;;;;;;;41.90;20.32;;;;;;;7.40;97.09;99779.46;1658657;84;21212;-62
2022/12/27 05:16:43;;;;;;;92.40;34.78;;;;;;;7.67;96.23;99779.94;1662493;84;21048;-63
2022/12/27 05:19:11;;;;;;;65.42;26.73;;;;;;;7.72;96.60;99785.89;1662489;84;21575;-63
2022/12/27 05:25:33;;;;;;;61.28;26.23;;;;;;;7.99;95.40;99783.33;1659609;84;21065;-64
2022/12/27 05:26:55;;;;;;;38.17;19.55;;;;;;;7.87;95.56;99792.91;1656081;84;21465;-64
2022/12/27 05:29:22;;;;;;;42.67;21.60;;;;;;;7.98;95.11;99799.95;1658759;84;21156;-63
2022/12/27 05:31:49;;;;;;;40.63;20.80;;;;;;;7.96;95.32;99796.55;1655649;84;21155;-64
2022/12/27 05:34:16;;;;;;;39.35;20.77;;;;;;;8.36;93.80;99800.48;1651276;85;21164;-63
2022/12/27 05:36:43;;;;;;;43.52;23.90;;;;;;;8.75;91.25;99797.45;1657728;84;21543;-62
2022/12/27 05:39:10;;;;;;;44.30;21.90;;;;;;;8.53;92.13;99791.61;1656404;84;21160;-64
2022/12/27 05:41:36;;;;;;;48.10;26.27;;;;;;;8.52;92.07;99792.53;1650316;84;21600;-64
2022/12/27 05:44:03;;;;;;;45.38;24.65;;;;;;;8.44;92.73;99795.86;1666672;84;21036;-65
2022/12/27 05:46:30;;;;;;;42.50;22.80;;;;;;;8.59;92.41;99793.19;1653548;84;21651;-62
2022/12/27 05:48:57;;;;;;;46.28;25.92;;;;;;;8.33;93.08;99788.80;1658389;84;21103;-64
2022/12/27 05:51:23;;;;;;;42.78;22.58;;;;;;;8.36;93.06;99788.68;1650694;84;21073;-63
2022/12/27 05:53:50;;;;;;;45.00;25.75;;;;;;;8.27;93.60;99781.12;1661401;84;21024;-64
2022/12/27 05:56:18;;;;;;;49.35;25.50;;;;;;;8.09;94.36;99789.13;1652683;84;21241;-63
2022/12/27 05:58:45;;;;;;;40.75;22.80;;;;;;;8.26;94.44;99787.25;1653435;85;21231;-64
2022/12/27 06:01:16;;;;;;;48.10;24.95;;;;;;;8.33;93.64;99783.55;1661443;85;22310;-63
2022/12/27 06:03:43;;;;;;;59.05;29.80;;;;;;;8.32;93.90;99775.25;1666965;84;21175;-63
2022/12/27 06:06:10;;;;;;;64.00;32.95;;;;;;;8.50;92.82;99773.35;1661248;84;21149;-64
2022/12/27 06:08:36;;;;;;;55.90;30.80;;;;;;;8.60;92.45;99780.02;1661968;84;21212;-62
2022/12/27 06:11:10;;;;;;;51.98;26.65;;;;;;;8.38;93.94;99773.75;1665176;85;21145;-64
2022/12/27 06:15:12;;;;;;;128.67;49.30;;;;;;;5.34;100.00;99781.59;1814599;79;22532;-63
2022/12/27 06:17:40;;;;;;;148.13;63.15;;;;;;;7.85;100.00;99771.96;1787427;80;20993;-64
2022/12/27 06:20:08;;;;;;;89.62;39.90;;;;;;;8.30;98.37;99778.38;1787295;80;21525;-64
2022/12/27 06:22:35;;;;;;;63.68;33.45;;;;;;;8.40;96.64;99777.22;1787678;80;20957;-62
2022/12/27 06:25:01;;;;;;;61.73;30.00;;;;;;;8.42;95.88;99780.64;1787240;80;21572;-63
2022/12/27 06:27:28;;;;;;;49.42;25.82;;;;;;;8.18;97.62;99780.50;1772977;80;21046;-63
2022/12/27 06:29:55;;;;;;;58.00;31.20;;;;;;;8.38;96.70;99777.69;1756303;81;21145;-62
2022/12/27 06:32:21;;;;;;;77.55;40.08;;;;;;;8.27;97.30;99779.80;1756179;81;21218;-63
2022/12/27 06:34:48;;;;;;;60.52;31.02;;;;;;;8.44;96.75;99772.24;1756195;81;21106;-63
2022/12/27 06:37:14;;;;;;;74.42;37.30;;;;;;;8.60;95.58;99773.89;1756456;81;21642;-63
2022/12/27 06:39:41;;;;;;;76.85;37.80;;;;;;;8.38;97.16;99773.75;1756117;81;21063;-63
2022/12/27 06:42:08;;;;;;;68.15;37.42;;;;;;;8.89;94.95;99778.13;1756314;81;21122;-62
2022/12/27 06:44:35;;;;;;;57.40;31.50;;;;;;;8.63;94.99;99788.67;1756300;81;21125;-63
2022/12/27 06:47:02;;;;;;;52.98;28.10;;;;;;;8.58;95.59;99785.77;1756100;81;21019;-62
2022/12/27 06:49:28;;;;;;;66.67;30.30;;;;;;;8.91;94.09;99778.93;1756223;81;21047;-63
2022/12/27 06:51:55;;;;;;;49.88;25.20;;;;;;;8.77;94.69;99775.95;1756421;81;21092;-64
2022/12/27 06:54:22;;;;;;;43.08;23.38;;;;;;;8.69;95.10;99776.19;1756073;81;21015;-64
2022/12/27 06:56:48;;;;;;;61.08;29.27;;;;;;;9.06;93.46;99772.72;1751082;81;21121;-64
2022/12/27 06:59:16;;;;;;;52.60;27.60;;;;;;;9.11;93.54;99774.71;1726180;83;21110;-65
2022/12/27 07:01:42;;;;;;;60.65;28.65;;;;;;;8.95;94.07;99770.03;1726419;82;21105;-64
2022/12/27 07:04:09;;;;;;;76.33;33.83;;;;;;;9.24;92.89;99773.35;1726050;83;21317;-63
2022/12/27 07:06:37;;;;;;;75.85;32.50;;;;;;;9.24;93.02;99772.04;1726093;82;21118;-64
2022/12/27 07:09:04;;;;;;;79.60;36.13;;;;;;;9.57;90.90;99770.36;1726469;82;21754;-64
2022/12/27 07:11:32;;;;;;;61.10;28.00;;;;;;;9.19;92.80;99770.89;1725995;82;21090;-63
2022/12/27 07:13:59;;;;;;;83.20;37.28;;;;;;;9.12;93.25;99776.44;1724545;82;21027;-65
2022/12/27 07:16:30;;;;;;;82.20;38.28;;;;;;;9.03;93.35;99761.87;1721262;83;21031;-64
2022/12/27 07:18:58;;;;;;;70.12;33.88;;;;;;;8.87;94.82;99764.19;1721260;83;21082;-65
2022/12/27 07:21:26;;;;;;;93.95;40.88;;;;;;;9.22;93.25;99764.66;1702849;83;21142;-64
2022/12/27 07:23:53;;;;;;;93.03;37.70;;;;;;;8.41;96.84;99768.42;1721267;83;21516;-63
2022/12/27 07:26:25;;;;;;;73.50;30.88;;;;;;;8.72;96.06;99769.97;1720639;83;21203;-63
2022/12/27 07:28:53;;;;;;;95.47;41.15;;;;;;;8.49;96.63;99767.72;1721053;83;21098;-63
2022/12/27 07:31:22;;;;;;;97.78;40.65;;;;;;;8.73;96.61;99757.27;1720689;83;21094;-63
2022/12/27 07:33:50;;;;;;;96.78;41.45;;;;;;;8.88;95.86;99759.36;1720932;83;21128;-64
2022/12/27 07:36:23;;;;;;;80.40;36.85;;;;;;;8.79;96.11;99755.75;1720436;83;21118;-65
2022/12/27 07:38:50;;;;;;;73.97;32.40;;;;;;;8.80;96.19;99759.61;1720767;83;21055;-63
2022/12/27 07:41:18;;;;;;;85.85;38.92;;;;;;;8.52;97.32;99762.81;1720536;83;21059;-64
2022/12/27 07:43:45;;;;;;;80.22;35.13;;;;;;;8.49;97.68;99749.78;1720730;83;21199;-64
2022/12/27 07:46:16;;;;;;;65.10;29.90;;;;;;;8.51;98.04;99754.09;1720612;83;21253;-65
2022/12/27 07:48:42;;;;;;;78.47;32.78;;;;;;;8.58;97.55;99748.14;1720980;83;21054;-62
2022/12/27 07:51:09;;;;;;;68.15;31.45;;;;;;;8.61;98.05;99755.47;1720444;83;21056;-64
2022/12/27 07:53:36;;;;;;;93.15;38.70;;;;;;;8.90;97.94;99753.56;1720699;82;21128;-64
2022/12/27 07:56:13;;;;;;;85.57;37.25;;;;;;;8.90;97.94;99753.56;1720544;83;21056;-64
2022/12/27 07:58:42;;;;;;;78.33;35.45;;;;;;;9.01;97.44;99750.56;1720334;82;21569;-64
2022/12/27 08:01:10;;;;;;;88.37;37.55;;;;;;;9.15;97.75;99753.98;1720602;83;21552;-65
2022/12/27 08:03:36;;;;;;;87.53;37.38;;;;;;;9.14;97.73;99746.57;1721058;83;21104;-62
2022/12/27 08:06:04;;;;;;;84.70;36.03;;;;;;;9.25;96.93;99747.50;1720493;83;21045;-64
2022/12/27 08:08:39;;;;;;;78.30;35.25;;;;;;;9.21;96.64;99750.68;1720729;83;21077;-64
2022/12/27 08:11:05;;;;;;;77.47;35.15;;;;;;;8.95;98.32;99745.52;1720503;83;21286;-62
2022/12/27 08:13:32;;;;;;;87.90;39.27;;;;;;;8.95;98.32;99745.52;1720311;83;21072;-67
2022/12/27 08:15:58;;;;;;;85.83;38.67;;;;;;;8.87;98.49;99741.87;1720503;83;21065;-63
2022/12/27 08:18:25;;;;;;;77.97;34.45;;;;;;;8.87;98.78;99748.44;1692348;83;21116;-63
2022/12/27 08:20:52;;;;;;;96.37;42.90;;;;;;;8.98;97.75;99740.17;1720728;83;21096;-64
2022/12/27 08:23:18;;;;;;;81.75;32.78;;;;;;;8.70;99.60;99746.42;1720706;83;21251;-64
2022/12/27 08:25:45;;;;;;;89.95;36.20;;;;;;;8.38;100.00;99750.98;1720561;83;21128;-62
2022/12/27 08:28:15;;;;;;;81.67;35.13;;;;;;;8.38;100.00;99750.13;1734088;82;21093;-64
2022/12/27 08:30:43;;;;;;;72.82;30.97;;;;;;;8.49;100.00;99746.72;1737888;82;21120;-63
2022/12/27 08:33:10;;;;;;;85.30;37.23;;;;;;;8.71;100.00;99742.02;1737969;82;21065;-64
2022/12/27 08:35:41;;;;;;;118.53;44.80;;;;;;;8.99;99.83;99739.25;1737865;82;21592;-63
2022/12/27 08:38:07;;;;;;;90.55;39.90;;;;;;;8.84;100.00;99734.58;1737501;82;21565;-63
2022/12/27 08:40:39;;;;;;;110.17;43.33;;;;;;;9.13;99.62;99736.11;1738029;82;21033;-63
2022/12/27 08:43:06;;;;;;;84.75;37.03;;;;;;;9.24;99.65;99735.25;1738086;82;21052;-63
2022/12/27 08:45:34;;;;;;;97.33;42.45;;;;;;;9.15;99.89;99734.28;1737918;82;21068;-63
2022/12/27 08:48:00;;;;;;;103.27;44.18;;;;;;;9.17;100.00;99736.41;1737973;82;22060;-63
2022/12/27 08:50:27;;;;;;;76.42;35.30;;;;;;;9.25;99.94;99772.45;1738171;82;21017;-63
2022/12/27 08:52:58;;;;;;;97.60;42.98;;;;;;;9.00;99.09;99731.33;1738006;82;21136;-63
2022/12/27 08:55:26;;;;;;;93.10;39.73;;;;;;;9.15;100.00;99726.41;1738049;82;21236;-63
2022/12/27 08:57:56;;;;;;;100.82;44.10;;;;;;;9.26;100.00;99732.11;1738237;82;21088;-64
2022/12/27 09:00:24;;;;;;;107.35;47.75;;;;;;;9.37;100.00;99726.00;1738353;82;21223;-64
2022/12/27 09:02:52;;;;;;;81.47;36.23;;;;;;;9.17;100.00;99728.52;1738181;82;21114;-63
2022/12/27 09:05:19;;;;;;;117.37;51.37;;;;;;;8.98;100.00;99727.89;1738058;82;21045;-63
2022/12/27 09:07:46;;;;;;;113.60;47.85;;;;;;;8.98;100.00;99727.89;1738124;82;21069;-63
2022/12/27 09:10:13;;;;;;;99.13;42.85;;;;;;;9.22;100.00;99718.69;1738134;82;21121;-63
2022/12/27 09:12:41;;;;;;;114.92;50.65;;;;;;;9.31;100.00;99720.11;1738151;82;21371;-63
2022/12/27 09:15:09;;;;;;;106.52;42.83;;;;;;;9.63;99.81;99707.03;1735316;82;21077;-63
2022/12/27 09:17:37;;;;;;;107.55;46.10;;;;;;;9.23;100.00;99688.89;1733457;82;21057;-63
2022/12/27 09:20:05;;;;;;;114.97;49.08;;;;;;;9.23;100.00;99688.89;1733362;82;20990;-63
2022/12/27 09:22:32;;;;;;;98.00;41.60;;;;;;;9.37;100.00;99687.04;1733527;82;21033;-63
2022/12/27 09:24:59;;;;;;;119.42;50.65;;;;;;;9.37;100.00;99687.04;1733378;82;21156;-63
2022/12/27 09:27:26;;;;;;;111.42;45.65;;;;;;;9.03;100.00;99681.30;1739926;82;21039;-63
2022/12/27 09:29:52;;;;;;;112.45;49.00;;;;;;;9.03;100.00;99681.30;1748231;82;21043;-63
2022/12/27 09:32:19;;;;;;;115.72;47.85;;;;;;;9.32;100.00;99684.59;1747921;82;21062;-63
2022/12/27 09:34:45;;;;;;;86.25;37.13;;;;;;;9.67;100.00;99684.96;1748223;82;21081;-63
2022/12/27 09:37:12;;;;;;;119.75;52.15;;;;;;;9.70;100.00;99683.51;1748052;82;21575;-63
2022/12/27 09:39:39;;;;;;;122.87;51.33;;;;;;;9.70;100.00;99683.51;1748380;82;21004;-63
2022/12/27 09:42:32;;;;;;;133.47;54.95;;;;;;;9.81;100.00;99679.98;1747804;82;21043;-64
2022/12/27 09:45:17;;;;;;;121.85;51.48;;;;;;;9.82;100.00;99676.45;1740699;82;21027;-63
2022/12/27 09:47:55;;;;;;;116.53;49.60;;;;;;;9.92;100.00;99690.08;1740781;82;21054;-64
2022/12/27 09:50:45;;;;;;;117.55;50.73;;;;;;;9.91;100.00;99683.55;1748045;82;21123;-64
2022/12/27 09:53:36;;;;;;;141.03;55.23;;;;;;;9.91;100.00;99683.55;1748166;82;21582;-65
2022/12/27 09:56:03;;;;;;;123.02;52.85;;;;;;;9.69;100.00;99683.13;1748089;82;21606;-64
2022/12/27 09:58:41;;;;;;;132.00;53.20;;;;;;;9.76;100.00;99686.37;1720707;82;21110;-64
2022/12/27 10:01:33;;;;;;;140.60;58.28;;;;;;;9.83;100.00;99683.41;1748092;82;21063;-64
2022/12/27 10:03:59;;;;;;;153.50;57.50;;;;;;;9.70;100.00;99683.51;1748017;82;21168;-64
2022/12/27 10:06:50;;;;;;;112.92;51.33;;;;;;;9.70;100.00;99681.34;1748010;82;21598;-64
2022/12/27 10:09:38;;;;;;;130.80;55.15;;;;;;;9.61;100.00;99682.56;1748379;82;21008;-63
2022/12/27 10:12:33;;;;;;;126.35;53.25;;;;;;;9.34;100.00;99676.19;1748287;82;21566;-63
2022/12/27 13:58:12;;;;;;;117.97;52.67;;;;;;;8.99;100.00;99638.98;1849367;77;27059;-64
2022/12/27 14:01:06;;;;;;;130.22;56.65;;;;;;;9.23;100.00;99646.38;1754569;81;21039;-64
2022/12/27 14:03:58;;;;;;;117.37;50.92;;;;;;;8.92;100.00;99645.38;1753864;81;21174;-64
2022/12/27 14:06:45;;;;;;;116.45;51.63;;;;;;;8.97;100.00;99641.27;1754341;81;20949;-64
2022/12/27 14:09:32;;;;;;;118.95;51.40;;;;;;;8.98;100.00;99645.63;1694269;81;20990;-65
2022/12/27 14:12:23;;;;;;;114.17;46.42;;;;;;;9.00;100.00;99639.39;1752330;81;21037;-65
2022/12/27 14:14:50;;;;;;;95.15;41.18;;;;;;;8.97;100.00;99635.58;1751568;81;21560;-65
2022/12/27 14:17:34;;;;;;;106.50;47.55;;;;;;;9.16;100.00;99637.50;1754529;81;22081;-64
2022/12/27 14:20:28;;;;;;;91.67;42.67;;;;;;;9.16;100.00;99636.19;1754694;81;20997;-64
2022/12/27 14:23:00;;;;;;;95.87;41.58;;;;;;;9.62;100.00;99634.34;1784952;80;21041;-65
2022/12/27 14:25:47;;;;;;;99.20;47.30;;;;;;;9.09;100.00;99634.25;1784826;80;21021;-64
2022/12/27 14:28:34;;;;;;;87.27;40.83;;;;;;;9.21;100.00;99639.48;1763132;80;21057;-65
2022/12/27 14:31:44;;;;;;;92.10;39.90;;;;;;;9.17;100.00;99643.14;1756596;81;21380;-66
2022/12/27 14:34:44;;;;;;;71.82;34.45;;;;;;;9.41;100.00;99636.08;1756708;81;21065;-64
2022/12/27 14:37:49;;;;;;;85.07;35.90;;;;;;;9.56;100.00;99634.12;1710550;81;21600;-65
2022/12/27 14:40:45;;;;;;;75.15;33.75;;;;;;;9.57;100.00;99639.80;1757080;81;21061;-65
2022/12/27 14:43:55;;;;;;;76.02;36.20;;;;;;;9.58;100.00;99638.01;1756514;81;21683;-65
2022/12/27 14:46:50;;;;;;;80.07;35.88;;;;;;;9.47;100.00;99640.22;1757093;81;21237;-65
2022/12/27 14:50:04;;;;;;;73.92;33.53;;;;;;;9.53;100.00;99640.83;1749836;82;21698;-65
2022/12/27 14:53:09;;;;;;;62.67;30.50;;;;;;;9.74;100.00;99646.98;1749673;82;21022;-65
2022/12/27 14:56:03;;;;;;;65.55;30.45;;;;;;;10.15;100.00;99654.91;1749091;82;21149;-65
2022/12/27 14:58:47;;;;;;;61.23;28.70;;;;;;;9.59;100.00;99656.36;1741223;82;21139;-65
2022/12/27 15:01:27;;;;;;;57.43;27.75;;;;;;;9.50;100.00;99662.42;1741409;82;21319;-65
2022/12/27 15:04:38;;;;;;;49.15;25.60;;;;;;;9.59;100.00;99664.25;1741072;82;21022;-65
2022/12/27 15:07:29;;;;;;;46.40;23.15;;;;;;;9.74;100.00;99664.07;1741403;82;21073;-65
2022/12/27 15:10:53;;;;;;;42.73;21.75;;;;;;;9.76;100.00;99670.59;1741463;82;21569;-65
2022/12/27 15:13:57;;;;;;;39.05;21.10;;;;;;;9.82;100.00;99672.52;1741255;82;21607;-64
2022/12/27 15:16:42;;;;;;;33.10;17.98;;;;;;;9.85;100.00;99677.64;1657809;86;21875;-66
2022/12/27 15:19:48;;;;;;;31.17;17.07;;;;;;;9.64;100.00;99671.95;1735399;82;21108;-63
2022/12/27 15:22:23;;;;;;;30.92;17.48;;;;;;;9.38;100.00;99679.54;1741158;82;21014;-65
2022/12/27 15:25:07;;;;;;;28.75;16.10;;;;;;;9.36;100.00;99683.56;1741421;82;21057;-65
2022/12/27 15:27:49;;;;;;;25.05;13.90;;;;;;;9.32;100.00;99684.59;1741442;82;21076;-65
2022/12/27 15:30:35;;;;;;;24.65;13.90;;;;;;;9.24;100.00;99684.86;1740581;82;26521;-65
2022/12/27 15:33:08;;;;;;;24.20;13.43;;;;;;;9.48;100.00;99693.16;1741198;82;21025;-65
2022/12/27 15:35:48;;;;;;;22.85;12.95;;;;;;;9.73;100.00;99691.30;1740958;82;21544;-66
2022/12/27 15:38:42;;;;;;;17.30;10.78;;;;;;;9.83;100.00;99687.36;1741676;82;21621;-65
2022/12/27 15:41:25;;;;;;;18.80;11.48;;;;;;;9.74;100.00;99691.67;1717920;82;21592;-66
2022/12/27 15:44:26;;;;;;;20.82;11.83;;;;;;;9.71;100.00;99690.94;1740659;82;21251;-65
2022/12/27 15:47:16;;;;;;;18.65;10.72;;;;;;;9.69;100.00;99687.08;1743012;81;29383;-65
2022/12/27 15:50:13;;;;;;;18.60;10.73;;;;;;;9.75;100.00;99703.05;1769167;81;21041;-66
2022/12/27 15:53:10;;;;;;;16.93;9.08;;;;;;;9.66;100.00;99706.89;1769227;81;21025;-64
2022/12/27 15:56:27;;;;;;;16.17;8.25;;;;;;;9.84;100.00;99715.36;1769351;81;21057;-66
2022/12/27 15:59:38;;;;;;;12.70;7.42;;;;;;;9.99;100.00;99727.52;1749431;81;21081;-66
2022/12/27 16:02:29;;;;;;;9.98;5.20;;;;;;;9.75;100.00;99740.71;1731308;82;21061;-67
2022/12/27 16:05:13;;;;;;;10.20;4.85;;;;;;;9.78;100.00;99752.91;1717988;83;26534;-65
2022/12/27 16:08:01;;;;;;;8.63;4.47;;;;;;;9.86;100.00;99756.92;1738682;82;21084;-66
2022/12/27 16:10:46;;;;;;;6.25;4.37;;;;;;;10.12;100.00;99748.89;1718461;83;21030;-64
2022/12/27 16:13:31;;;;;;;5.05;3.40;;;;;;;10.06;100.00;99747.38;1750074;82;21115;-66
2022/12/27 16:15:59;;;;;;;6.50;3.98;;;;;;;10.21;100.00;99748.05;1718513;83;21112;-64
2022/12/27 16:18:44;;;;;;;5.12;3.10;;;;;;;10.06;100.00;99777.64;1749780;82;21517;-63
2022/12/27 16:21:21;;;;;;;5.15;3.08;;;;;;;9.91;100.00;99780.41;1691889;83;21040;-64
2022/12/27 16:24:02;;;;;;;4.17;2.60;;;;;;;9.72;100.00;99781.59;1749722;82;21076;-63
2022/12/27 16:26:33;;;;;;;4.65;2.60;;;;;;;9.94;100.00;99784.69;1714413;83;21164;-62
2022/12/27 16:29:08;;;;;;;4.42;2.52;;;;;;;9.93;100.00;99794.83;1694076;84;21049;-64
2022/12/27 16:31:37;;;;;;;4.20;2.27;;;;;;;9.78;100.00;99799.78;1693346;84;21133;-65
2022/12/27 16:34:12;;;;;;;2.58;1.85;;;;;;;10.04;100.00;99817.63;1694005;84;21116;-67
2022/12/27 16:36:44;;;;;;;4.45;2.22;;;;;;;9.66;100.00;99810.75;1694030;84;21600;-64
2022/12/27 16:39:25;;;;;;;3.33;2.15;;;;;;;9.47;100.00;99824.20;1694187;84;21100;-66
2022/12/27 16:42:02;;;;;;;2.08;1.50;;;;;;;9.37;100.00;99827.64;1694186;84;22145;-64
2022/12/27 16:44:57;;;;;;;2.92;1.62;;;;;;;9.22;100.00;99822.47;1709356;83;21087;-64
2022/12/27 16:47:53;;;;;;;2.90;1.70;;;;;;;9.15;100.00;99830.17;1702924;83;21494;-65
2022/12/27 16:50:42;;;;;;;2.47;1.52;;;;;;;8.94;100.00;99833.97;1705111;83;21574;-65
2022/12/27 16:53:26;;;;;;;3.12;1.52;;;;;;;8.90;100.00;99819.22;1696499;84;21168;-65
2022/12/27 16:56:21;;;;;;;3.50;2.17;;;;;;;8.81;100.00;99819.54;1705415;83;21068;-65
2022/12/27 16:58:48;;;;;;;4.28;2.70;;;;;;;8.75;100.00;99834.21;1749504;82;21100;-65
2022/12/27 17:01:44;;;;;;;2.72;1.82;;;;;;;8.43;100.00;99842.70;1743777;82;21112;-64
2022/12/27 17:04:14;;;;;;;3.98;2.40;;;;;;;8.42;100.00;99846.25;1740883;82;21065;-66
2022/12/27 17:06:47;;;;;;;3.12;1.82;;;;;;;8.29;100.00;99860.63;1707095;82;21254;-65
2022/12/27 17:09:25;;;;;;;2.87;1.92;;;;;;;8.52;100.00;99863.40;1741193;82;21064;-65
2022/12/27 17:11:58;;;;;;;2.98;1.98;;;;;;;8.63;100.00;99872.67;1741099;82;21069;-64
2022/12/27 17:14:34;;;;;;;3.62;2.30;;;;;;;8.77;100.00;99875.72;1741279;82;21046;-65
2022/12/27 17:17:17;;;;;;;3.02;1.90;;;;;;;8.77;100.00;99875.72;1741468;82;21068;-66
2022/12/27 17:20:05;;;;;;;2.58;1.65;;;;;;;8.33;100.00;99878.00;1709329;82;21533;-64